Time;durP1;ratioP1;P1;durP2;ratioP2;P2;SDS_P1;SDS_P2;PMS_P1;PMS_P2;Temp;Humidity;BMP_temperature;BMP_pressure;BME280_temperature;BME280_humidity;BME280_pressure;Samples;Min_cycle;Max_cycle;Signal;HPM_P1;HPM_P2
2023/03/26 00:00:02;;;;;;;18.60;4.10;;;;;;;;;;4986449;28;20176;-71
2023/03/26 00:02:28;;;;;;;26.93;4.40;;;;;;;;;;4988879;28;20274;-71
2023/03/26 00:04:53;;;;;;;18.87;4.47;;;;;;;;;;4989145;28;20206;-71
2023/03/26 00:07:19;;;;;;;21.53;4.40;;;;;;;;;;4990849;28;20211;-71
2023/03/26 00:09:44;;;;;;;24.33;5.00;;;;;;;;;;4989371;28;20199;-72
2023/03/26 00:12:10;;;;;;;21.97;5.33;;;;;;;;;;4990653;28;20322;-71
2023/03/26 00:14:36;;;;;;;25.93;4.50;;;;;;;;;;4992788;28;20677;-71
2023/03/26 00:17:01;;;;;;;18.47;3.70;;;;;;;;;;4993694;28;20206;-71
2023/03/26 00:19:26;;;;;;;26.87;5.10;;;;;;;;;;4988289;28;20172;-72
2023/03/26 00:21:52;;;;;;;17.07;4.70;;;;;;;;;;4991725;28;20713;-72
2023/03/26 00:24:17;;;;;;;18.70;4.50;;;;;;;;;;4987372;28;20326;-72
2023/03/26 00:26:43;;;;;;;23.60;5.03;;;;;;;;;;4985408;28;20230;-72
2023/03/26 00:29:09;;;;;;;22.30;5.13;;;;;;;;;;4991198;28;20650;-72
2023/03/26 00:31:34;;;;;;;25.77;5.47;;;;;;;;;;4988464;28;20198;-71
2023/03/26 00:34:02;;;;;;;24.80;5.53;;;;;;;;;;4988258;28;20192;-71
2023/03/26 00:36:27;;;;;;;28.10;5.60;;;;;;;;;;4988229;28;20243;-70
2023/03/26 00:38:53;;;;;;;31.00;6.67;;;;;;;;;;4983687;28;20211;-71
2023/03/26 00:41:23;;;;;;;29.30;6.47;;;;;;;;;;4987292;28;20205;-71
2023/03/26 00:43:50;;;;;;;26.67;5.83;;;;;;;;;;4991463;28;20672;-71
2023/03/26 00:46:16;;;;;;;35.33;7.60;;;;;;;;;;4992788;28;20211;-71
2023/03/26 00:48:42;;;;;;;29.73;7.50;;;;;;;;;;4993152;28;20211;-71
2023/03/26 00:51:08;;;;;;;27.77;6.50;;;;;;;;;;4991677;28;20225;-71
2023/03/26 00:53:33;;;;;;;38.67;7.30;;;;;;;;;;4975008;28;20611;-71
2023/03/26 00:55:59;;;;;;;32.97;7.80;;;;;;;;;;4989991;28;20234;-70
2023/03/26 00:58:25;;;;;;;40.60;9.13;;;;;;;;;;4992456;28;20274;-72
2023/03/26 01:00:52;;;;;;;31.57;7.37;;;;;;;;;;4989740;28;20183;-72
2023/03/26 01:03:18;;;;;;;22.40;6.57;;;;;;;;;;4989697;28;20214;-72
2023/03/26 01:05:43;;;;;;;27.73;6.23;;;;;;;;;;4986333;28;20697;-72
2023/03/26 01:08:23;;;;;;;44.20;7.93;;;;;;;;;;4989692;28;20183;-72
2023/03/26 01:10:51;;;;;;;50.73;10.90;;;;;;;;;;4981909;28;20564;-70
2023/03/26 01:13:17;;;;;;;37.73;7.87;;;;;;;;;;4987032;28;20266;-72
2023/03/26 01:15:49;;;;;;;55.80;11.20;;;;;;;;;;4988784;28;20212;-72
2023/03/26 01:18:16;;;;;;;38.47;8.13;;;;;;;;;;4985816;28;20677;-71
2023/03/26 01:20:45;;;;;;;40.27;7.17;;;;;;;;;;4988032;28;20223;-71
2023/03/26 01:23:12;;;;;;;32.83;6.17;;;;;;;;;;4987083;28;20180;-72
2023/03/26 01:25:39;;;;;;;24.33;5.67;;;;;;;;;;4989318;28;20230;-72
2023/03/26 01:28:07;;;;;;;32.27;7.20;;;;;;;;;;4983905;28;20239;-71
2023/03/26 01:30:36;;;;;;;34.00;6.70;;;;;;;;;;4977659;28;20198;-72
2023/03/26 01:33:01;;;;;;;34.13;7.30;;;;;;;;;;4988652;28;20184;-72
2023/03/26 01:35:37;;;;;;;37.10;7.53;;;;;;;;;;4987761;28;20203;-72
2023/03/26 01:38:10;;;;;;;34.27;7.40;;;;;;;;;;4991179;28;20202;-71
2023/03/26 01:40:42;;;;;;;32.03;7.17;;;;;;;;;;4987386;28;20203;-72
2023/03/26 01:43:10;;;;;;;42.53;8.20;;;;;;;;;;4990711;28;20180;-71
2023/03/26 01:45:37;;;;;;;40.50;8.17;;;;;;;;;;4989600;28;20211;-71
2023/03/26 01:48:02;;;;;;;38.57;7.97;;;;;;;;;;4991587;28;20194;-71
2023/03/26 01:50:28;;;;;;;28.07;6.53;;;;;;;;;;4988838;28;20259;-70
2023/03/26 01:52:53;;;;;;;45.67;9.73;;;;;;;;;;4987001;28;20274;-71
2023/03/26 01:55:18;;;;;;;35.13;7.63;;;;;;;;;;4990323;28;20199;-70
2023/03/26 01:57:53;;;;;;;27.80;6.47;;;;;;;;;;4990435;28;20693;-71
2023/03/26 02:00:26;;;;;;;34.33;6.60;;;;;;;;;;4991341;28;20187;-71
2023/03/26 02:02:53;;;;;;;27.40;6.13;;;;;;;;;;4988163;28;20176;-71
2023/03/26 02:05:28;;;;;;;23.90;5.77;;;;;;;;;;4993279;28;20238;-70
2023/03/26 02:07:59;;;;;;;26.70;5.67;;;;;;;;;;4992237;28;20182;-70
2023/03/26 02:10:26;;;;;;;37.57;6.83;;;;;;;;;;4983892;28;20187;-70
2023/03/26 02:12:51;;;;;;;37.53;7.00;;;;;;;;;;4990501;28;20183;-70
2023/03/26 02:15:16;;;;;;;27.67;7.13;;;;;;;;;;4994007;28;20624;-71
2023/03/26 02:17:42;;;;;;;28.70;5.57;;;;;;;;;;4995268;28;20749;-71
2023/03/26 02:20:09;;;;;;;33.67;6.20;;;;;;;;;;4993642;28;20275;-71
2023/03/26 02:22:39;;;;;;;24.10;6.50;;;;;;;;;;4994894;28;20672;-70
2023/03/26 02:25:05;;;;;;;47.47;7.20;;;;;;;;;;5000889;22;21622;-67
2023/03/26 02:27:30;;;;;;;31.20;7.00;;;;;;;;;;4985675;28;20279;-66
2023/03/26 02:29:55;;;;;;;31.87;8.30;;;;;;;;;;4989081;28;20680;-69
2023/03/26 02:32:21;;;;;;;31.53;8.43;;;;;;;;;;4994105;28;20191;-66
2023/03/26 02:34:46;;;;;;;34.90;8.20;;;;;;;;;;4993697;28;20606;-67
2023/03/26 02:37:11;;;;;;;31.80;7.40;;;;;;;;;;4988805;28;20207;-67
2023/03/26 02:39:36;;;;;;;36.70;8.93;;;;;;;;;;4985893;28;20219;-69
2023/03/26 02:42:01;;;;;;;32.17;8.10;;;;;;;;;;4990557;28;20184;-67
2023/03/26 02:44:27;;;;;;;29.73;7.17;;;;;;;;;;4980448;28;20631;-69
2023/03/26 02:46:52;;;;;;;25.97;7.00;;;;;;;;;;4982530;28;20250;-67
2023/03/26 02:49:17;;;;;;;37.27;7.80;;;;;;;;;;4992802;28;20176;-67
2023/03/26 02:51:42;;;;;;;22.67;6.90;;;;;;;;;;4993365;28;20275;-67
2023/03/26 02:54:08;;;;;;;33.33;8.10;;;;;;;;;;4991603;28;20171;-69
2023/03/26 02:56:34;;;;;;;30.83;7.07;;;;;;;;;;4992189;28;20211;-69
2023/03/26 02:58:59;;;;;;;24.80;7.40;;;;;;;;;;4991726;28;20243;-69
2023/03/26 03:01:24;;;;;;;31.17;8.10;;;;;;;;;;4985700;28;20183;-68
2023/03/26 03:03:50;;;;;;;31.17;7.80;;;;;;;;;;4989440;28;20172;-68
2023/03/26 03:06:17;;;;;;;22.17;7.17;;;;;;;;;;4990170;28;20286;-68
2023/03/26 03:08:44;;;;;;;26.80;7.60;;;;;;;;;;4988378;28;20231;-68
2023/03/26 03:11:12;;;;;;;29.17;8.23;;;;;;;;;;4991438;28;20549;-68
2023/03/26 03:13:37;;;;;;;29.67;7.43;;;;;;;;;;4992828;28;20241;-68
2023/03/26 03:16:03;;;;;;;37.97;10.30;;;;;;;;;;4991491;28;20421;-68
2023/03/26 03:18:28;;;;;;;28.10;7.30;;;;;;;;;;4993392;28;20176;-68
2023/03/26 03:20:53;;;;;;;29.33;6.33;;;;;;;;;;4992208;28;20286;-68
2023/03/26 03:23:19;;;;;;;36.07;8.67;;;;;;;;;;4992480;28;20179;-68
2023/03/26 03:25:44;;;;;;;34.07;9.40;;;;;;;;;;4991002;28;20262;-68
2023/03/26 03:28:10;;;;;;;24.70;7.60;;;;;;;;;;4992621;28;20548;-68
2023/03/26 03:30:35;;;;;;;27.13;7.73;;;;;;;;;;4992902;28;20756;-68
2023/03/26 03:33:01;;;;;;;30.47;7.90;;;;;;;;;;4993070;28;20194;-67
2023/03/26 03:35:26;;;;;;;24.73;8.03;;;;;;;;;;4990188;28;20199;-68
2023/03/26 03:37:52;;;;;;;34.00;8.90;;;;;;;;;;4989325;28;20199;-68
2023/03/26 03:40:18;;;;;;;21.23;9.37;;;;;;;;;;4989698;28;20525;-68
2023/03/26 03:42:43;;;;;;;35.80;8.30;;;;;;;;;;4989382;28;20700;-68
2023/03/26 03:45:09;;;;;;;26.10;7.50;;;;;;;;;;4983844;28;20290;-68
2023/03/26 03:47:34;;;;;;;29.17;7.63;;;;;;;;;;4991412;28;20223;-68
2023/03/26 03:50:00;;;;;;;26.77;8.20;;;;;;;;;;4990003;28;20616;-68
2023/03/26 03:52:26;;;;;;;29.10;9.23;;;;;;;;;;4991023;28;20328;-68
2023/03/26 03:54:51;;;;;;;30.27;7.73;;;;;;;;;;4989291;28;20187;-67
2023/03/26 03:57:17;;;;;;;29.60;10.07;;;;;;;;;;4988404;28;20258;-68
2023/03/26 03:59:43;;;;;;;32.87;10.00;;;;;;;;;;4985930;28;20179;-67
2023/03/26 04:02:09;;;;;;;24.10;7.20;;;;;;;;;;4985980;28;20283;-67
2023/03/26 04:04:36;;;;;;;23.63;7.40;;;;;;;;;;4990061;28;20184;-68
2023/03/26 04:07:01;;;;;;;21.30;7.30;;;;;;;;;;4987952;28;20642;-67
2023/03/26 04:09:26;;;;;;;22.17;8.43;;;;;;;;;;4989610;28;20266;-66
2023/03/26 04:11:52;;;;;;;23.23;8.53;;;;;;;;;;4981665;28;20576;-67
2023/03/26 04:14:17;;;;;;;20.80;7.97;;;;;;;;;;4990592;28;20176;-67
2023/03/26 04:16:42;;;;;;;29.73;7.67;;;;;;;;;;4987250;28;20247;-67
2023/03/26 04:19:07;;;;;;;24.60;7.10;;;;;;;;;;4986526;28;20254;-68
2023/03/26 04:21:36;;;;;;;20.83;8.17;;;;;;;;;;4990821;28;20180;-67
2023/03/26 04:24:02;;;;;;;20.33;6.40;;;;;;;;;;4985275;28;20333;-66
2023/03/26 04:26:29;;;;;;;22.77;7.07;;;;;;;;;;4987865;28;20238;-67
2023/03/26 04:28:56;;;;;;;25.53;7.10;;;;;;;;;;4991589;28;20203;-67
2023/03/26 04:31:27;;;;;;;22.40;6.30;;;;;;;;;;4990560;28;20199;-66
2023/03/26 04:33:55;;;;;;;27.73;7.53;;;;;;;;;;4990971;28;20255;-66
2023/03/26 04:36:28;;;;;;;29.33;6.53;;;;;;;;;;4991037;28;20192;-66
2023/03/26 04:38:54;;;;;;;21.40;5.90;;;;;;;;;;4988965;28;20180;-67
2023/03/26 04:41:21;;;;;;;20.20;6.47;;;;;;;;;;4991754;28;20198;-66
2023/03/26 04:43:49;;;;;;;25.33;7.87;;;;;;;;;;4991689;28;20611;-67
2023/03/26 04:46:20;;;;;;;24.47;7.00;;;;;;;;;;4991467;28;20262;-67
2023/03/26 04:48:49;;;;;;;23.57;6.43;;;;;;;;;;4989556;28;20182;-67
2023/03/26 04:51:16;;;;;;;28.20;8.10;;;;;;;;;;4998790;28;20206;-68
2023/03/26 04:53:43;;;;;;;26.03;7.50;;;;;;;;;;4998919;28;20218;-67
2023/03/26 04:56:27;;;;;;;14.50;7.20;;;;;;;;;;4993871;28;20196;-67
2023/03/26 04:58:55;;;;;;;23.10;6.77;;;;;;;;;;4990131;28;20294;-67
2023/03/26 05:01:23;;;;;;;30.73;7.70;;;;;;;;;;4985502;28;20311;-67
2023/03/26 05:03:48;;;;;;;24.63;8.47;;;;;;;;;;4980916;28;20184;-67
2023/03/26 05:06:15;;;;;;;17.63;5.93;;;;;;;;;;4989600;28;20194;-67
2023/03/26 05:08:40;;;;;;;25.57;7.27;;;;;;;;;;4989632;28;20180;-66
2023/03/26 05:11:10;;;;;;;27.93;8.03;;;;;;;;;;4989018;28;20177;-67
2023/03/26 05:13:35;;;;;;;31.10;7.27;;;;;;;;;;4990262;28;20565;-67
2023/03/26 05:16:00;;;;;;;19.87;7.10;;;;;;;;;;4994108;28;20210;-67
2023/03/26 05:18:25;;;;;;;17.70;8.07;;;;;;;;;;4994302;28;20211;-67
2023/03/26 05:20:50;;;;;;;32.77;7.97;;;;;;;;;;4994791;28;20246;-67
2023/03/26 05:23:16;;;;;;;28.53;7.27;;;;;;;;;;4991015;28;20172;-67
2023/03/26 05:25:41;;;;;;;32.60;8.23;;;;;;;;;;4989542;28;20239;-67
2023/03/26 05:28:07;;;;;;;22.83;6.43;;;;;;;;;;4992697;28;20184;-67
2023/03/26 05:30:33;;;;;;;26.07;7.07;;;;;;;;;;4990909;28;20180;-66
2023/03/26 05:32:58;;;;;;;21.53;6.63;;;;;;;;;;4993596;28;20608;-66
2023/03/26 05:35:23;;;;;;;28.90;7.50;;;;;;;;;;4994406;28;20207;-66
2023/03/26 05:37:50;;;;;;;32.70;8.53;;;;;;;;;;4987207;28;20243;-67
2023/03/26 05:40:15;;;;;;;24.93;8.93;;;;;;;;;;4994651;28;20516;-67
2023/03/26 05:42:41;;;;;;;24.57;7.17;;;;;;;;;;4986423;28;20226;-67
2023/03/26 05:45:07;;;;;;;27.00;7.93;;;;;;;;;;4992980;28;20238;-67
2023/03/26 05:47:32;;;;;;;30.43;9.37;;;;;;;;;;4989946;28;20211;-67
2023/03/26 05:49:58;;;;;;;36.83;9.70;;;;;;;;;;4995115;28;20206;-67
2023/03/26 05:52:23;;;;;;;26.33;7.00;;;;;;;;;;4997855;28;20715;-67
2023/03/26 05:54:48;;;;;;;21.97;7.50;;;;;;;;;;4991991;28;20184;-68
2023/03/26 05:57:13;;;;;;;30.73;8.17;;;;;;;;;;4993070;28;20633;-68
2023/03/26 05:59:39;;;;;;;22.70;7.00;;;;;;;;;;4993187;28;20634;-68
2023/03/26 06:02:04;;;;;;;26.53;7.90;;;;;;;;;;4975979;28;20793;-67
2023/03/26 06:04:30;;;;;;;28.70;8.13;;;;;;;;;;4993527;28;20167;-67
2023/03/26 06:06:56;;;;;;;25.50;6.80;;;;;;;;;;4993698;28;20211;-68
2023/03/26 06:09:21;;;;;;;22.50;7.50;;;;;;;;;;4992990;28;20180;-67
2023/03/26 06:11:46;;;;;;;22.83;7.03;;;;;;;;;;4989932;28;20255;-67
2023/03/26 06:14:12;;;;;;;24.03;7.23;;;;;;;;;;4992567;28;20179;-68
2023/03/26 06:16:37;;;;;;;29.70;7.40;;;;;;;;;;4988767;28;20211;-68
2023/03/26 06:19:02;;;;;;;30.73;8.53;;;;;;;;;;4994178;28;20263;-67
2023/03/26 06:21:28;;;;;;;31.97;7.87;;;;;;;;;;4993369;28;20635;-68
2023/03/26 06:23:54;;;;;;;23.20;6.97;;;;;;;;;;4993418;28;20179;-67
2023/03/26 06:26:19;;;;;;;28.53;7.27;;;;;;;;;;4991888;28;20637;-67
2023/03/26 06:28:44;;;;;;;21.87;6.93;;;;;;;;;;4979518;28;20242;-67
2023/03/26 06:31:10;;;;;;;23.20;7.80;;;;;;;;;;4989533;28;20230;-68
2023/03/26 06:33:35;;;;;;;22.63;7.23;;;;;;;;;;4993136;28;20263;-67
2023/03/26 06:36:01;;;;;;;25.53;6.47;;;;;;;;;;4987031;28;20193;-67
2023/03/26 06:38:26;;;;;;;26.30;6.87;;;;;;;;;;4992018;28;20203;-68
2023/03/26 06:40:51;;;;;;;18.63;6.73;;;;;;;;;;4985433;28;20565;-68
2023/03/26 06:43:16;;;;;;;19.33;7.10;;;;;;;;;;4986855;28;20169;-67
2023/03/26 06:45:42;;;;;;;23.47;7.17;;;;;;;;;;4990776;28;20258;-67
2023/03/26 06:48:07;;;;;;;19.20;6.67;;;;;;;;;;4992443;28;20230;-68
2023/03/26 06:50:32;;;;;;;28.17;6.60;;;;;;;;;;4993799;28;20572;-67
2023/03/26 06:52:57;;;;;;;24.83;6.93;;;;;;;;;;4995129;28;20258;-67
2023/03/26 06:55:23;;;;;;;27.00;6.30;;;;;;;;;;4993296;28;20298;-67
2023/03/26 06:57:52;;;;;;;23.40;6.40;;;;;;;;;;4982047;28;20222;-67
2023/03/26 07:00:18;;;;;;;15.13;5.80;;;;;;;;;;4991731;28;20190;-68
2023/03/26 07:02:43;;;;;;;17.70;5.67;;;;;;;;;;4991635;28;20172;-68
2023/03/26 07:05:08;;;;;;;19.13;5.90;;;;;;;;;;4992053;28;20199;-68
2023/03/26 07:07:33;;;;;;;18.27;6.43;;;;;;;;;;4992940;28;20175;-67
2023/03/26 07:09:59;;;;;;;24.20;6.63;;;;;;;;;;4992737;28;20426;-68
2023/03/26 07:12:25;;;;;;;26.27;7.57;;;;;;;;;;4991899;28;20331;-67
2023/03/26 07:14:50;;;;;;;25.83;7.50;;;;;;;;;;4988808;28;20176;-67
2023/03/26 07:17:15;;;;;;;27.60;9.13;;;;;;;;;;4989960;28;20570;-67
2023/03/26 07:19:40;;;;;;;24.43;7.60;;;;;;;;;;4989490;28;20195;-67
2023/03/26 07:22:06;;;;;;;25.53;8.37;;;;;;;;;;4990962;28;20267;-67
2023/03/26 07:24:31;;;;;;;23.73;7.57;;;;;;;;;;4992260;28;20654;-67
2023/03/26 07:26:59;;;;;;;22.50;6.60;;;;;;;;;;4989438;28;20285;-68
2023/03/26 07:29:24;;;;;;;20.83;6.67;;;;;;;;;;4990147;28;20274;-67
2023/03/26 07:32:06;;;;;;;25.33;8.33;;;;;;;;;;4992648;28;20274;-67
2023/03/26 07:34:50;;;;;;;29.93;8.77;;;;;;;;;;4991924;28;20183;-67
2023/03/26 07:37:34;;;;;;;22.83;6.83;;;;;;;;;;4992181;28;20207;-68
2023/03/26 07:40:18;;;;;;;20.50;5.10;;;;;;;;;;4982806;28;20180;-67
2023/03/26 07:42:49;;;;;;;23.80;5.33;;;;;;;;;;4991449;28;20211;-67
2023/03/26 07:45:20;;;;;;;15.97;6.93;;;;;;;;;;4992691;28;20192;-66
2023/03/26 07:47:46;;;;;;;16.47;5.00;;;;;;;;;;4992542;28;20590;-69
2023/03/26 07:50:18;;;;;;;20.47;5.67;;;;;;;;;;4993107;28;20179;-67
2023/03/26 07:52:43;;;;;;;16.10;5.00;;;;;;;;;;4992487;28;20191;-67
2023/03/26 07:55:15;;;;;;;18.87;5.07;;;;;;;;;;4992572;28;20195;-67
2023/03/26 07:57:56;;;;;;;16.97;5.07;;;;;;;;;;4991741;28;20207;-68
2023/03/26 08:00:24;;;;;;;24.83;5.97;;;;;;;;;;4991465;28;20176;-68
2023/03/26 08:02:49;;;;;;;16.63;4.77;;;;;;;;;;4989368;28;20189;-68
2023/03/26 08:05:18;;;;;;;17.30;5.93;;;;;;;;;;4992216;28;20206;-68
2023/03/26 08:08:07;;;;;;;20.63;5.33;;;;;;;;;;4992049;28;20198;-68
2023/03/26 08:10:37;;;;;;;18.53;6.33;;;;;;;;;;4992827;28;20183;-68
2023/03/26 08:13:21;;;;;;;16.87;4.93;;;;;;;;;;4990595;28;20187;-68
2023/03/26 08:16:04;;;;;;;13.47;4.10;;;;;;;;;;4991843;28;20698;-68
2023/03/26 08:18:29;;;;;;;27.50;5.20;;;;;;;;;;4989280;28;20213;-68
2023/03/26 08:21:05;;;;;;;12.67;5.40;;;;;;;;;;4992580;28;20179;-68
2023/03/26 08:23:37;;;;;;;15.47;4.90;;;;;;;;;;4991467;28;20179;-68
2023/03/26 08:26:34;;;;;;;19.77;5.67;;;;;;;;;;5002547;22;20250;-72
2023/03/26 08:29:08;;;;;;;19.05;5.47;;;;;;;;;;4981139;28;20221;-72
2023/03/26 08:31:37;;;;;;;19.98;5.75;;;;;;;;;;4989865;28;20234;-71
2023/03/26 08:34:02;;;;;;;18.63;5.07;;;;;;;;;;4992145;28;20183;-72
2023/03/26 08:36:28;;;;;;;17.83;4.82;;;;;;;;;;4981263;28;20211;-73
2023/03/26 08:38:53;;;;;;;17.40;4.78;;;;;;;;;;4977535;28;20188;-72
2023/03/26 08:41:31;;;;;;;22.73;5.10;;;;;;;;;;4973589;28;20172;-72
2023/03/26 08:44:05;;;;;;;16.77;6.57;;;;;;;;;;4976145;28;20176;-72
2023/03/26 08:46:36;;;;;;;21.73;5.78;;;;;;;;;;4972982;28;20575;-72
2023/03/26 08:49:07;;;;;;;13.57;4.70;;;;;;;;;;4977809;28;20308;-72
2023/03/26 08:51:35;;;;;;;15.15;4.05;;;;;;;;;;4973619;28;20175;-72
2023/03/26 08:54:19;;;;;;;16.83;4.65;;;;;;;;;;4973874;28;20188;-72
2023/03/26 08:56:50;;;;;;;18.77;5.18;;;;;;;;;;4977400;28;20215;-72
2023/03/26 08:59:31;;;;;;;19.92;5.20;;;;;;;;;;4974060;28;20187;-72
2023/03/26 09:02:05;;;;;;;14.70;5.05;;;;;;;;;;4985242;28;20179;-72
2023/03/26 09:04:33;;;;;;;19.42;5.97;;;;;;;;;;4971326;28;20214;-72
2023/03/26 09:06:58;;;;;;;20.35;7.30;;;;;;;;;;4977069;28;20342;-72
2023/03/26 09:09:34;;;;;;;12.20;4.55;;;;;;;;;;4970167;28;20271;-72
2023/03/26 09:12:12;;;;;;;14.52;5.57;;;;;;;;;;4974530;28;20184;-72
2023/03/26 09:14:56;;;;;;;18.00;7.77;;;;;;;;;;4972223;28;20179;-72
2023/03/26 09:17:21;;;;;;;16.50;5.87;;;;;;;;;;4971043;28;20200;-73
2023/03/26 09:19:55;;;;;;;20.42;5.97;;;;;;;;;;4984228;28;20176;-72
2023/03/26 09:22:35;;;;;;;17.37;6.10;;;;;;;;;;4972493;28;20673;-73
2023/03/26 09:25:10;;;;;;;22.40;6.73;;;;;;;;;;4974723;28;20271;-73
2023/03/26 09:27:35;;;;;;;14.73;4.93;;;;;;;;;;4977475;28;20611;-73
2023/03/26 09:30:06;;;;;;;16.63;5.93;;;;;;;;;;4973198;28;20238;-72
2023/03/26 09:32:50;;;;;;;13.47;5.23;;;;;;;;;;4968707;28;20263;-72
2023/03/26 09:35:27;;;;;;;22.17;7.50;;;;;;;;;;4970460;28;20227;-72
2023/03/26 09:38:00;;;;;;;17.10;5.60;;;;;;;;;;4977580;28;20271;-72
2023/03/26 09:40:28;;;;;;;22.17;5.17;;;;;;;;;;4961915;28;20660;-72
2023/03/26 09:42:58;;;;;;;17.17;4.80;;;;;;;;;;4973899;28;20234;-72
2023/03/26 09:45:31;;;;;;;8.57;4.17;;;;;;;;;;4979540;28;20635;-72
2023/03/26 09:48:06;;;;;;;15.30;4.40;;;;;;;;;;4980127;28;20279;-72
2023/03/26 09:50:51;;;;;;;9.43;4.30;;;;;;;;;;4976730;28;20658;-73
2023/03/26 09:53:22;;;;;;;13.87;4.43;;;;;;;;;;4971564;28;20219;-73
2023/03/26 09:56:06;;;;;;;8.30;4.00;;;;;;;;;;4963728;28;20205;-73
2023/03/26 09:58:46;;;;;;;6.93;3.87;;;;;;;;;;4974743;28;20200;-73
2023/03/26 10:01:30;;;;;;;9.93;4.23;;;;;;;;;;4972008;28;20176;-72
2023/03/26 10:04:14;;;;;;;10.03;3.70;;;;;;;;;;4979446;28;20188;-72
2023/03/26 10:06:43;;;;;;;7.83;3.93;;;;;;;;;;4979388;28;20749;-73
2023/03/26 10:09:27;;;;;;;10.60;4.13;;;;;;;;;;4980577;28;20230;-73
2023/03/26 10:11:52;;;;;;;8.47;4.33;;;;;;;;;;4979116;28;20267;-71
2023/03/26 10:14:21;;;;;;;8.00;3.80;;;;;;;;;;4984963;28;20211;-73
2023/03/26 10:16:54;;;;;;;10.93;4.97;;;;;;;;;;4966455;28;20296;-73
2023/03/26 10:19:19;;;;;;;9.60;5.03;;;;;;;;;;4969087;28;20601;-73
2023/03/26 10:21:45;;;;;;;11.00;6.30;;;;;;;;;;4970810;28;20271;-73
2023/03/26 10:24:30;;;;;;;7.47;5.60;;;;;;;;;;4982549;28;20181;-73
2023/03/26 10:27:07;;;;;;;11.30;7.20;;;;;;;;;;4974994;28;20230;-73
2023/03/26 10:29:51;;;;;;;10.27;6.23;;;;;;;;;;4972646;28;20270;-73
2023/03/26 10:32:21;;;;;;;11.80;5.53;;;;;;;;;;4967808;28;20539;-73
2023/03/26 10:35:05;;;;;;;9.57;5.93;;;;;;;;;;4967809;28;20248;-73
2023/03/26 10:37:33;;;;;;;9.80;5.80;;;;;;;;;;4966826;28;20219;-73
2023/03/26 10:40:13;;;;;;;7.67;5.30;;;;;;;;;;4974106;28;20192;-73
2023/03/26 10:42:57;;;;;;;7.90;4.03;;;;;;;;;;4977964;28;20562;-73
2023/03/26 10:45:22;;;;;;;8.23;4.23;;;;;;;;;;4978130;28;20254;-74
2023/03/26 10:47:50;;;;;;;7.73;4.10;;;;;;;;;;4980445;28;20647;-74
2023/03/26 10:50:30;;;;;;;10.20;5.23;;;;;;;;;;4970912;28;20203;-74
2023/03/26 10:53:02;;;;;;;10.43;6.73;;;;;;;;;;4973250;28;20192;-73
2023/03/26 10:55:36;;;;;;;11.93;6.37;;;;;;;;;;4973304;28;20255;-73
2023/03/26 10:58:10;;;;;;;13.70;6.77;;;;;;;;;;4969239;28;20212;-73
2023/03/26 11:00:38;;;;;;;13.33;7.43;;;;;;;;;;4971764;28;20257;-73
2023/03/26 11:03:27;;;;;;;15.17;8.07;;;;;;;;;;4972381;28;20558;-73
2023/03/26 11:06:01;;;;;;;11.43;6.57;;;;;;;;;;4971005;28;20259;-73
2023/03/26 11:08:45;;;;;;;14.03;5.93;;;;;;;;;;4968496;28;20180;-74
2023/03/26 11:11:18;;;;;;;10.20;5.67;;;;;;;;;;4972384;28;20188;-75
2023/03/26 11:13:44;;;;;;;10.90;6.10;;;;;;;;;;4957569;28;20193;-73
2023/03/26 11:16:24;;;;;;;12.93;5.37;;;;;;;;;;4973564;28;20258;-74
2023/03/26 11:18:57;;;;;;;20.93;5.73;;;;;;;;;;4967682;28;20259;-74
2023/03/26 11:21:32;;;;;;;14.70;6.37;;;;;;;;;;4985197;28;20184;-73
2023/03/26 11:24:05;;;;;;;9.47;5.03;;;;;;;;;;4984732;28;20187;-73
2023/03/26 11:26:33;;;;;;;14.03;5.43;;;;;;;;;;4964797;28;20227;-73
2023/03/26 11:29:16;;;;;;;12.57;6.50;;;;;;;;;;4971267;28;20177;-73
2023/03/26 11:31:59;;;;;;;16.60;5.60;;;;;;;;;;4971339;28;20504;-73
2023/03/26 11:34:28;;;;;;;13.90;4.70;;;;;;;;;;4973829;28;20185;-74
2023/03/26 11:36:55;;;;;;;9.87;4.67;;;;;;;;;;4970316;28;20240;-74
2023/03/26 11:39:23;;;;;;;16.13;4.33;;;;;;;;;;4973126;28;20180;-74
2023/03/26 11:41:50;;;;;;;10.70;4.83;;;;;;;;;;4986149;28;20179;-74
2023/03/26 11:44:41;;;;;;;16.97;4.77;;;;;;;;;;4974400;28;20259;-74
2023/03/26 11:47:09;;;;;;;17.77;5.10;;;;;;;;;;4971422;28;20718;-73
2023/03/26 11:49:34;;;;;;;16.60;5.63;;;;;;;;;;4976113;28;20184;-73
2023/03/26 11:52:01;;;;;;;14.77;4.50;;;;;;;;;;4977265;28;20685;-73
2023/03/26 11:54:26;;;;;;;9.87;3.63;;;;;;;;;;4981296;28;20599;-73
2023/03/26 11:56:55;;;;;;;15.97;4.73;;;;;;;;;;4976256;28;20266;-73
2023/03/26 11:59:28;;;;;;;9.83;4.63;;;;;;;;;;4964335;28;20177;-73
2023/03/26 12:01:56;;;;;;;11.17;4.70;;;;;;;;;;4975152;28;20184;-73
2023/03/26 12:04:35;;;;;;;14.20;4.43;;;;;;;;;;4975374;28;20172;-73
2023/03/26 12:07:07;;;;;;;8.73;4.10;;;;;;;;;;4982550;28;20567;-73
2023/03/26 12:09:32;;;;;;;16.70;3.93;;;;;;;;;;4969442;28;20195;-73
2023/03/26 12:11:59;;;;;;;18.53;4.00;;;;;;;;;;4974365;28;20184;-73
2023/03/26 12:14:25;;;;;;;9.57;3.73;;;;;;;;;;4972933;28;20660;-73
2023/03/26 12:16:58;;;;;;;13.03;5.13;;;;;;;;;;4980912;28;20711;-73
2023/03/26 12:19:24;;;;;;;17.27;4.50;;;;;;;;;;4975211;28;20219;-74
2023/03/26 12:21:50;;;;;;;14.03;4.23;;;;;;;;;;4969691;28;20593;-73
2023/03/26 12:24:29;;;;;;;15.23;4.47;;;;;;;;;;4978160;28;20176;-72
2023/03/26 12:27:02;;;;;;;15.23;4.90;;;;;;;;;;4979524;28;20231;-72
2023/03/26 12:29:33;;;;;;;8.83;3.83;;;;;;;;;;4983143;28;20562;-72
2023/03/26 12:32:04;;;;;;;15.97;4.20;;;;;;;;;;4979828;28;20193;-73
2023/03/26 12:34:33;;;;;;;14.10;3.93;;;;;;;;;;4969204;28;20184;-72
2023/03/26 12:36:59;;;;;;;15.17;3.93;;;;;;;;;;4973726;28;20234;-72
2023/03/26 12:39:33;;;;;;;13.50;3.47;;;;;;;;;;4974977;28;20265;-73
2023/03/26 12:41:59;;;;;;;12.30;4.20;;;;;;;;;;4975242;28;20176;-72
2023/03/26 12:44:24;;;;;;;21.53;4.67;;;;;;;;;;4975744;28;20212;-73
2023/03/26 12:46:52;;;;;;;7.90;3.37;;;;;;;;;;4974812;28;20260;-75
2023/03/26 12:49:18;;;;;;;9.10;3.00;;;;;;;;;;4974508;28;20176;-73
2023/03/26 12:51:47;;;;;;;10.73;3.10;;;;;;;;;;4977929;28;20596;-75
2023/03/26 12:54:32;;;;;;;10.13;3.87;;;;;;;;;;4975439;28;20681;-73
2023/03/26 12:57:19;;;;;;;15.00;3.33;;;;;;;;;;4976920;28;20208;-73
2023/03/26 12:59:50;;;;;;;14.33;3.63;;;;;;;;;;4967881;28;20183;-73
2023/03/26 13:02:34;;;;;;;9.83;3.40;;;;;;;;;;4967519;28;20206;-73
2023/03/26 13:05:18;;;;;;;15.57;3.07;;;;;;;;;;4966342;28;20185;-73
2023/03/26 13:07:52;;;;;;;10.47;3.80;;;;;;;;;;4985273;28;20180;-73
2023/03/26 13:10:23;;;;;;;13.17;3.83;;;;;;;;;;4980011;28;20558;-73
2023/03/26 13:13:08;;;;;;;10.63;3.03;;;;;;;;;;4968857;28;20234;-72
2023/03/26 13:15:44;;;;;;;8.40;2.57;;;;;;;;;;4964822;28;20655;-73
2023/03/26 13:18:12;;;;;;;9.80;3.60;;;;;;;;;;4974567;28;20243;-72
2023/03/26 13:20:47;;;;;;;11.87;3.40;;;;;;;;;;4972918;28;20183;-73
2023/03/26 13:23:26;;;;;;;8.63;3.17;;;;;;;;;;4973260;28;20181;-72
2023/03/26 13:25:51;;;;;;;8.17;2.87;;;;;;;;;;4973176;28;20289;-72
2023/03/26 13:28:30;;;;;;;9.67;2.73;;;;;;;;;;4981336;28;20339;-72
2023/03/26 13:31:14;;;;;;;8.27;2.50;;;;;;;;;;4975982;28;20263;-72
2023/03/26 13:33:45;;;;;;;5.87;2.13;;;;;;;;;;4980228;28;20176;-72
2023/03/26 13:36:11;;;;;;;8.53;2.77;;;;;;;;;;4979454;28;20709;-72
2023/03/26 13:38:45;;;;;;;10.63;2.13;;;;;;;;;;4976651;28;20211;-72
2023/03/26 13:41:25;;;;;;;5.70;2.40;;;;;;;;;;4978082;28;20633;-72
2023/03/26 13:44:09;;;;;;;13.20;2.73;;;;;;;;;;4974607;28;20238;-71
2023/03/26 13:46:37;;;;;;;7.73;2.20;;;;;;;;;;4979175;28;20784;-72
2023/03/26 13:49:14;;;;;;;10.47;2.47;;;;;;;;;;4984486;28;20264;-72
2023/03/26 13:51:43;;;;;;;11.25;2.70;;;;;;;;;;4979898;28;20234;-72
2023/03/26 13:54:22;;;;;;;8.90;2.13;;;;;;;;;;4973836;28;20236;-71
2023/03/26 13:56:58;;;;;;;10.43;2.22;;;;;;;;;;4973964;28;20258;-71
2023/03/26 13:59:33;;;;;;;10.20;1.70;;;;;;;;;;4978514;28;20180;-72
2023/03/26 14:02:01;;;;;;;9.27;2.17;;;;;;;;;;4972454;28;20184;-72
2023/03/26 14:04:34;;;;;;;6.88;2.10;;;;;;;;;;4980602;28;20184;-72
2023/03/26 14:07:05;;;;;;;3.85;1.55;;;;;;;;;;4979263;28;20572;-72
2023/03/26 14:09:35;;;;;;;3.45;1.40;;;;;;;;;;4979532;28;20188;-73
2023/03/26 14:12:18;;;;;;;8.93;2.50;;;;;;;;;;4970883;28;20177;-73
2023/03/26 14:14:52;;;;;;;11.30;3.40;;;;;;;;;;4975477;28;20271;-72
2023/03/26 14:17:20;;;;;;;5.43;1.80;;;;;;;;;;4986448;28;20266;-72
2023/03/26 14:19:56;;;;;;;8.90;1.65;;;;;;;;;;4986470;28;20176;-73
2023/03/26 14:22:45;;;;;;;6.03;1.58;;;;;;;;;;4988637;28;20170;-73
2023/03/26 14:28:00;;;;;;;9.20;2.05;;;;;;;;;;4991673;28;20542;-68
2023/03/26 14:30:26;;;;;;;8.50;1.70;;;;;;;;;;4986837;28;20183;-67
2023/03/26 14:33:17;;;;;;;13.88;1.77;;;;;;;;;;4993593;28;20567;-68
2023/03/26 14:35:45;;;;;;;8.48;2.03;;;;;;;;;;4993994;28;20204;-67
2023/03/26 14:38:32;;;;;;;5.38;2.00;;;;;;;;;;4991991;28;20208;-67
2023/03/26 14:41:06;;;;;;;7.47;1.40;;;;;;;;;;4989344;28;20188;-67
2023/03/26 14:43:50;;;;;;;6.20;1.73;;;;;;;;;;4990712;28;20716;-67
2023/03/26 14:46:28;;;;;;;8.18;1.70;;;;;;;;;;4992558;28;20581;-68
2023/03/26 14:49:04;;;;;;;8.07;1.75;;;;;;;;;;4990560;28;20267;-67